createdAt,value
2022-08-02T00:03:05.328Z,48.53
2022-08-02T00:08:02.822Z,49.96
2022-08-02T00:12:59.470Z,52.92
2022-08-02T00:17:56.239Z,54.55
2022-08-02T00:22:52.881Z,55.61
2022-08-02T00:27:50.198Z,57.05
2022-08-02T00:32:46.942Z,57.28
2022-08-02T00:37:43.667Z,56.68
2022-08-02T00:42:40.367Z,57.67
2022-08-02T00:47:37.729Z,58.56
2022-08-02T00:52:34.458Z,59.27
2022-08-02T00:57:31.131Z,57.94
2022-08-02T01:02:27.824Z,56.83
2022-08-02T01:07:25.171Z,56.78
2022-08-02T01:12:21.887Z,57.47
2022-08-02T01:17:23.316Z,55.99
2022-08-02T01:22:45.209Z,56.30
2022-08-02T01:27:53.692Z,55.96
2022-08-02T01:32:53.880Z,56.18
2022-08-02T01:37:53.540Z,56.24
2022-08-02T01:42:52.845Z,56.25
2022-08-02T01:47:50.787Z,55.77
2022-08-02T01:52:53.751Z,54.51
2022-08-02T01:57:52.362Z,53.71
2022-08-02T02:02:50.151Z,52.74
2022-08-02T02:07:49.564Z,51.44
2022-08-02T02:12:51.014Z,50.62
2022-08-02T02:18:11.749Z,50.57
2022-08-02T02:23:06.066Z,50.81
2022-08-02T02:28:07.474Z,49.88
2022-08-02T02:33:05.924Z,50.30
2022-08-02T02:38:04.217Z,50.28
2022-08-02T02:43:01.449Z,50.14
2022-08-02T02:48:00.511Z,49.81
2022-08-02T02:52:57.991Z,49.38
2022-08-02T02:57:55.125Z,49.81
2022-08-02T03:02:51.977Z,49.84
2022-08-02T03:07:49.279Z,49.02
2022-08-02T03:12:45.987Z,48.38
2022-08-02T03:17:43.373Z,47.58
2022-08-02T03:22:40.430Z,48.09
2022-08-02T03:27:37.855Z,48.41
2022-08-02T03:32:34.885Z,48.81
2022-08-02T03:37:32.018Z,48.55
2022-08-02T03:42:28.831Z,48.83
2022-08-02T03:47:27.626Z,48.25
2022-08-02T03:52:26.411Z,48.45
2022-08-02T03:57:23.120Z,50.76
2022-08-02T04:02:19.793Z,52.42
2022-08-02T04:08:32.984Z,52.97
2022-08-02T04:12:34.017Z,51.22
2022-08-02T04:17:31.880Z,49.47
2022-08-02T04:22:31.321Z,48.68
2022-08-02T04:27:50.333Z,48.80
2022-08-02T04:32:45.518Z,48.29
2022-08-02T04:38:09.999Z,48.07
2022-08-02T04:43:00.352Z,48.05
2022-08-02T04:48:04.664Z,47.95
2022-08-02T04:53:02.592Z,47.82
2022-08-02T04:57:59.343Z,47.59
2022-08-02T05:02:56.167Z,48.27
2022-08-02T05:07:52.810Z,47.74
2022-08-02T05:12:50.446Z,47.74
2022-08-02T05:17:48.646Z,48.21
2022-08-02T05:22:45.634Z,47.52
2022-08-02T05:27:42.286Z,48.05
2022-08-02T05:32:46.103Z,48.22
2022-08-02T05:37:43.110Z,47.39
2022-08-02T05:42:40.147Z,46.88
2022-08-02T05:47:37.187Z,46.10
2022-08-02T05:52:41.445Z,46.13
2022-08-02T05:57:47.142Z,46.07
2022-08-02T06:03:02.821Z,46.04
2022-08-02T06:08:00.292Z,45.20
2022-08-02T06:13:03.852Z,45.32
2022-08-02T06:18:01.326Z,44.83
2022-08-02T06:22:59.061Z,44.44
2022-08-02T06:27:57.018Z,44.23
2022-08-02T06:32:54.015Z,43.36
2022-08-02T06:37:55.588Z,43.74
2022-08-02T06:43:01.847Z,43.23
2022-08-02T06:47:58.489Z,42.57
2022-08-02T06:52:55.218Z,42.67
2022-08-02T06:57:51.818Z,42.10
2022-08-02T07:02:52.732Z,41.90
2022-08-02T07:07:50.705Z,42.36
2022-08-02T07:12:47.370Z,42.18
2022-08-02T07:17:44.073Z,42.62
2022-08-02T07:22:41.707Z,42.92
2022-08-02T07:27:38.393Z,43.77
2022-08-02T07:32:35.148Z,43.30
2022-08-02T07:37:53.870Z,43.74
2022-08-02T07:42:52.552Z,42.05
2022-08-02T07:47:49.697Z,42.68
2022-08-02T07:52:46.657Z,43.04
2022-08-02T07:57:46.475Z,42.85
2022-08-02T08:02:44.690Z,41.95
2022-08-02T08:07:41.444Z,40.98
2022-08-02T08:12:38.181Z,40.62
2022-08-02T08:17:37.284Z,39.98
2022-08-02T08:22:34.740Z,40.04
2022-08-02T08:27:32.899Z,40.01
2022-08-02T08:32:29.700Z,39.42
2022-08-02T08:37:26.789Z,39.30
2022-08-02T08:42:24.219Z,37.14
2022-08-02T08:47:23.496Z,36.74
2022-08-02T08:52:23.178Z,37.54
2022-08-02T08:57:21.142Z,36.71
2022-08-02T09:02:24.740Z,36.31
2022-08-02T09:07:24.736Z,36.62
2022-08-02T09:12:21.771Z,36.81
2022-08-02T09:17:21.450Z,36.60
2022-08-02T09:22:19.014Z,36.65
2022-08-02T09:27:16.743Z,35.55
2022-08-02T09:32:13.889Z,36.41
2022-08-02T09:37:22.553Z,36.07
2022-08-02T09:42:19.573Z,36.16
2022-08-02T09:47:16.481Z,35.03
2022-08-02T09:52:15.187Z,35.09
2022-08-02T09:57:12.571Z,35.98
2022-08-02T10:02:17.960Z,35.93
2022-08-02T10:07:20.096Z,35.45
2022-08-02T10:12:21.682Z,33.93
2022-08-02T10:17:18.701Z,34.41
2022-08-02T10:22:17.369Z,33.79
2022-08-02T10:27:18.378Z,34.15
2022-08-02T10:32:21.182Z,34.18
2022-08-02T10:37:18.615Z,34.60
2022-08-02T10:42:35.386Z,34.81
2022-08-02T10:47:32.777Z,34.40
2022-08-02T10:52:30.076Z,33.80
2022-08-02T10:57:27.720Z,33.67
2022-08-02T11:02:35.617Z,33.84
2022-08-02T11:07:33.346Z,33.31
2022-08-02T11:12:30.268Z,33.31
2022-08-02T11:17:28.367Z,33.06
2022-08-02T11:22:26.157Z,33.66
2022-08-02T11:27:23.107Z,33.54
2022-08-02T11:32:31.238Z,33.97
2022-08-02T11:37:29.362Z,33.34
2022-08-02T11:42:31.565Z,33.30
2022-08-02T11:47:28.547Z,33.11
2022-08-02T11:52:32.524Z,33.26
2022-08-02T11:57:30.153Z,33.00
2022-08-02T12:02:47.663Z,32.22
2022-08-02T12:07:45.970Z,31.54
2022-08-02T12:12:51.916Z,31.99
2022-08-02T12:18:08.205Z,32.15
2022-08-02T12:23:05.361Z,32.34
2022-08-02T12:28:17.883Z,31.94
2022-08-02T12:33:15.161Z,32.00
2022-08-02T12:38:12.631Z,32.27
2022-08-02T12:43:23.308Z,31.58
2022-08-02T12:48:37.302Z,32.86
2022-08-02T12:53:34.718Z,32.57
2022-08-02T12:58:31.702Z,34.20
2022-08-02T13:04:09.606Z,34.81
2022-08-02T13:08:46.465Z,34.70
2022-08-02T13:13:43.391Z,34.86
2022-08-02T13:18:40.283Z,34.45
2022-08-02T13:23:54.564Z,34.61
2022-08-02T13:28:52.827Z,34.09
2022-08-02T13:33:49.672Z,33.96
2022-08-02T13:38:46.457Z,34.19
2022-08-02T13:43:55.302Z,33.58
2022-08-02T13:48:55.493Z,32.88
2022-08-02T13:53:52.246Z,32.91
2022-08-02T13:58:49.066Z,32.83
2022-08-02T14:04:07.626Z,32.99
2022-08-02T14:09:03.632Z,32.84
2022-08-02T14:14:00.545Z,32.63
2022-08-02T14:18:57.449Z,32.50
2022-08-02T14:23:54.223Z,32.64
2022-08-02T14:28:51.794Z,32.45
2022-08-02T14:33:48.773Z,32.37
2022-08-02T14:38:45.477Z,32.18
2022-08-02T14:44:00.432Z,31.85
2022-08-02T14:49:01.282Z,32.71
2022-08-02T14:54:02.388Z,32.54
2022-08-02T14:59:00.455Z,32.13
2022-08-02T15:03:58.033Z,31.71
2022-08-02T15:08:55.009Z,31.60
2022-08-02T15:13:51.923Z,31.18
2022-08-02T15:18:49.959Z,31.44
2022-08-02T15:23:47.441Z,31.34
2022-08-02T15:28:44.152Z,31.11
2022-08-02T15:33:40.986Z,30.87
2022-08-02T15:38:37.790Z,31.17
2022-08-02T15:43:40.644Z,30.87
2022-08-02T15:48:53.107Z,31.22
2022-08-02T15:53:49.972Z,31.31
2022-08-02T15:58:47.507Z,31.28
2022-08-02T16:03:50.827Z,31.21
2022-08-02T16:08:54.935Z,31.91
2022-08-02T16:13:55.022Z,31.42
2022-08-02T16:18:52.018Z,30.69
2022-08-02T16:24:01.790Z,31.23
2022-08-02T16:29:00.997Z,31.61
2022-08-02T16:33:58.100Z,31.55
2022-08-02T16:38:54.992Z,31.14
2022-08-02T16:43:51.844Z,31.17
2022-08-02T16:48:51.038Z,30.99
2022-08-02T16:54:00.175Z,30.95
2022-08-02T16:59:00.108Z,31.92
2022-08-02T17:03:58.150Z,30.67
2022-08-02T17:08:55.728Z,30.70
2022-08-02T17:13:52.497Z,30.41
2022-08-02T17:18:49.485Z,30.81
2022-08-02T17:24:05.868Z,34.73
2022-08-02T17:29:15.338Z,34.88
2022-08-02T17:34:16.692Z,36.58
2022-08-02T17:39:14.540Z,36.75
2022-08-02T17:44:11.422Z,38.54
2022-08-02T17:49:19.293Z,38.51
2022-08-02T17:54:18.878Z,36.95
2022-08-02T17:59:20.584Z,37.44
2022-08-02T18:04:17.837Z,38.60
2022-08-02T18:09:24.552Z,39.56
2022-08-02T18:14:24.411Z,39.41
2022-08-02T18:19:23.239Z,39.15
2022-08-02T18:24:30.671Z,38.96
2022-08-02T18:29:30.061Z,38.35
2022-08-02T18:34:35.532Z,38.48
2022-08-02T18:39:38.618Z,39.31
2022-08-02T18:44:35.424Z,40.06
2022-08-02T18:49:32.130Z,41.52
2022-08-02T18:54:44.366Z,41.71
2022-08-02T18:59:41.661Z,42.39
2022-08-02T19:04:43.011Z,42.16
2022-08-02T19:09:40.609Z,41.30
2022-08-02T19:14:38.171Z,38.05
2022-08-02T19:19:34.789Z,37.38
2022-08-02T19:24:31.413Z,39.35
2022-08-02T19:29:48.362Z,40.60
2022-08-02T19:34:46.460Z,40.29
2022-08-02T19:39:45.829Z,38.98
2022-08-02T19:44:45.639Z,37.77
2022-08-02T19:49:42.582Z,35.80
2022-08-02T19:54:56.096Z,36.13
2022-08-02T19:59:54.182Z,36.61
2022-08-02T20:04:52.929Z,36.26
2022-08-02T20:09:51.302Z,36.49
2022-08-02T20:14:51.041Z,35.65
2022-08-02T20:20:05.411Z,35.56
2022-08-02T20:25:07.858Z,35.60
2022-08-02T20:30:05.324Z,36.17
2022-08-02T20:35:02.058Z,35.81
2022-08-02T20:39:58.735Z,35.83
2022-08-02T20:44:56.033Z,36.25
2022-08-02T20:50:11.735Z,36.06
2022-08-02T20:55:16.951Z,36.14
2022-08-02T21:00:16.064Z,36.55
2022-08-02T21:05:17.200Z,36.83
2022-08-02T21:10:14.976Z,36.86
2022-08-02T21:15:11.706Z,36.88
2022-08-02T21:20:10.373Z,36.64
2022-08-02T21:25:10.355Z,36.97
2022-08-02T21:30:12.879Z,37.40
2022-08-02T21:35:12.096Z,38.05
2022-08-02T21:40:09.650Z,38.64
2022-08-02T21:45:17.359Z,39.01
2022-08-02T21:50:17.539Z,38.77
2022-08-02T21:55:15.026Z,39.18
2022-08-02T22:00:15.177Z,38.99
2022-08-02T22:05:14.157Z,39.33
2022-08-02T22:10:11.748Z,39.19
2022-08-02T22:15:10.382Z,39.75
2022-08-02T22:20:07.689Z,39.44
2022-08-02T22:25:04.894Z,39.45
2022-08-02T22:30:02.446Z,39.95
2022-08-02T22:35:00.101Z,40.25
2022-08-02T22:40:09.042Z,40.98
2022-08-02T22:45:08.673Z,41.20
2022-08-02T22:50:06.118Z,41.29
2022-08-02T22:55:08.921Z,41.77
2022-08-02T23:00:08.278Z,41.13
2022-08-02T23:05:05.962Z,41.14
2022-08-02T23:10:04.187Z,41.25
2022-08-02T23:15:00.951Z,40.97
2022-08-02T23:19:57.321Z,41.38
2022-08-02T23:24:56.998Z,41.48
2022-08-02T23:29:53.699Z,41.13
2022-08-02T23:34:50.485Z,41.50
2022-08-02T23:39:47.098Z,41.93
2022-08-02T23:44:44.428Z,41.73
2022-08-02T23:49:41.155Z,41.56
2022-08-02T23:54:38.653Z,42.22
2022-08-02T23:59:35.264Z,41.67
